Pagina principale
METAR-TAF:

METAR-TAF

Aeroporti :

Aeroporto di Volgograd

Volgograd, Russia

latitudine: 48-47N, longitudine: 044-22E, altezza: 145 m

Osservazione

Il bollettino è stato emesso 38 minuti fa, alle 11:30 UTC
Vento 8 kt da ovest
Temperature 22°C
Umidità 35%
Pressione 1024 hPa
Visibilità 10 km o più
nessuna nube inferiore a 1500 m e nessun cumulonembo

METAR: URWW 171130Z 28004MPS CAVOK 22/06 Q1024 R24/010070 NOSIG

Ora: 15:08 (12:08 UTC)

Previsione

Il bollettino è stato emesso 1 ora e 9 minuti fa, alle 10:59 UTC
Previsione valida dal 17 alle 12 UTC al 17 alle 21 UTC
Vento 6 kt da nord-ovest con raffiche fino a 16 kt
Visibilità 10 km o più
Nubi sparse ad un'altezza di 3000 ft
Temporaneamente
dal 17 alle 12 UTC al 17 alle 18 UTC
Vento 10 kt da ovest/nord-ovest con raffiche fino a 19 kt

TAF: URWW 171059Z 1712/1721 32003G08MPS 9999 SCT030 TEMPO 1712/1718 29005G10MPS

Osservazioni e previsioni meteorologiche di più di 4000 aeroporti (messaggi METAR e TAF).

Le stazioni disponibili sono rappresentate dai dischi gialli e rossi sulla carta.

Puntare il mouse per vedere il nome della stazione.

Clicca sopra per visualizzare le osservazioni e previsioni meteorologiche.

Per cambiare la mappa : fare clic sui pulsanti verdi con una croce nera per ingrandire, il pulsante verde con un trattino per diminuire, o sulla freccia verde per le mappe adiacenti.


METAR-TAF: